Varna, Bulgaria
Current Conditions -  °F | °C
As of 9:30 AM on Wednesday 28 Jan 2015 (Local Time) from LBWN Reporting Station
Light Rain Light Rain  
Wind Chill: 31°   Ceiling: 900
Heat Index: 37°   Visibility: 6mi
Dew Point: 36°   Wind: 9mph
Humidity: 93%   Direction: 290°WNW
Pressure: 29.83"   Gusts: NA
Location:  43.21°N, 27.9°E
Report Text: LBWN 280630Z 29008KT 260V350 9999 -RA BKN009 OVC026 03/02 Q1010 R99/29//95 NOSIG
Loading
Personal Weather Stations






























Interactive Weather Map New forecast layout! Learn more

10-Day Weather Forecast

Advertisements
Track Severe Weather on mobile